createdAt,value
2018-07-10T00:02:37.855Z,47.70
2018-07-10T00:05:17.462Z,48.20
2018-07-10T00:11:04.160Z,49.40
2018-07-10T00:13:32.810Z,48.50
2018-07-10T00:16:01.391Z,48.80
2018-07-10T00:18:30.106Z,49.50
2018-07-10T00:20:58.680Z,50.00
2018-07-10T00:23:27.435Z,49.80
2018-07-10T00:25:56.067Z,49.90
2018-07-10T00:28:24.668Z,49.90
2018-07-10T00:30:53.219Z,50.20
2018-07-10T00:33:21.814Z,50.00
2018-07-10T00:35:50.425Z,50.20
2018-07-10T00:38:30.269Z,50.80
2018-07-10T00:40:58.908Z,51.40
2018-07-10T00:43:27.586Z,51.30
2018-07-10T00:45:56.123Z,51.50
2018-07-10T00:48:24.634Z,51.50
2018-07-10T00:50:53.443Z,51.40
2018-07-10T00:53:22.108Z,51.40
2018-07-10T00:55:50.875Z,51.30
2018-07-10T00:58:19.458Z,51.20
2018-07-10T01:00:51.620Z,50.90
2018-07-10T01:03:21.589Z,50.30
2018-07-10T01:05:50.178Z,50.80
2018-07-10T01:08:18.689Z,50.70
2018-07-10T01:10:53.244Z,51.00
2018-07-10T01:13:21.841Z,51.40
2018-07-10T01:15:50.666Z,51.40
2018-07-10T01:18:27.618Z,51.60
2018-07-10T01:20:56.540Z,51.90
2018-07-10T01:23:29.132Z,51.50
2018-07-10T01:25:58.668Z,51.60
2018-07-10T01:28:27.647Z,51.40
2018-07-10T01:30:56.376Z,51.00
2018-07-10T01:33:25.091Z,50.80
2018-07-10T01:35:53.928Z,51.00
2018-07-10T01:38:23.131Z,50.70
2018-07-10T01:40:52.352Z,50.60
2018-07-10T01:43:21.059Z,50.90
2018-07-10T01:45:49.739Z,51.00
2018-07-10T01:48:18.464Z,50.90
2018-07-10T01:50:47.071Z,51.40
2018-07-10T01:53:15.691Z,51.30
2018-07-10T01:55:44.340Z,51.10
2018-07-10T01:58:13.047Z,50.80
2018-07-10T02:00:43.877Z,51.20
2018-07-10T02:03:12.891Z,51.00
2018-07-10T02:05:42.384Z,51.00
2018-07-10T02:08:11.162Z,51.20
2018-07-10T02:10:39.784Z,51.60
2018-07-10T02:13:08.428Z,51.50
2018-07-10T02:15:37.015Z,51.40
2018-07-10T02:18:05.544Z,51.10
2018-07-10T02:20:46.446Z,51.70
2018-07-10T02:23:15.080Z,51.60
2018-07-10T02:25:43.685Z,51.60
2018-07-10T02:28:12.312Z,51.90
2018-07-10T02:30:40.986Z,51.90
2018-07-10T02:33:09.630Z,52.10
2018-07-10T02:35:38.324Z,51.80
2018-07-10T02:38:07.651Z,52.40
2018-07-10T02:40:36.503Z,52.50
2018-07-10T02:43:05.110Z,52.50
2018-07-10T02:45:34.028Z,52.40
2018-07-10T02:48:02.692Z,52.30
2018-07-10T02:50:32.333Z,53.30
2018-07-10T02:53:00.903Z,52.60
2018-07-10T02:55:30.449Z,52.60
2018-07-10T02:57:59.080Z,53.10
2018-07-10T03:00:27.843Z,53.10
2018-07-10T03:02:56.638Z,53.40
2018-07-10T03:05:25.408Z,53.10
2018-07-10T03:07:54.139Z,53.40
2018-07-10T03:10:22.724Z,53.40
2018-07-10T03:12:51.912Z,53.40
2018-07-10T03:15:20.679Z,53.70
2018-07-10T03:17:49.452Z,53.50
2018-07-10T03:20:18.119Z,53.40
2018-07-10T03:22:46.745Z,53.30
2018-07-10T03:25:15.336Z,53.30
2018-07-10T03:27:44.046Z,53.50
2018-07-10T03:30:12.613Z,53.00
2018-07-10T03:32:41.211Z,52.90
2018-07-10T03:35:09.704Z,52.80
2018-07-10T03:37:38.329Z,53.00
2018-07-10T03:40:06.988Z,53.20
2018-07-10T03:42:35.609Z,53.40
2018-07-10T03:45:04.164Z,53.40
2018-07-10T03:47:32.760Z,53.40
2018-07-10T03:50:01.343Z,53.60
2018-07-10T03:52:36.333Z,53.40
2018-07-10T03:55:15.625Z,53.60
2018-07-10T03:57:44.227Z,54.00
2018-07-10T04:00:15.080Z,53.90
2018-07-10T04:02:47.072Z,54.00
2018-07-10T04:05:16.130Z,54.00
2018-07-10T04:07:45.079Z,54.00
2018-07-10T04:10:15.916Z,54.80
2018-07-10T04:12:46.653Z,54.40
2018-07-10T04:15:15.724Z,55.40
2018-07-10T04:18:05.224Z,55.10
2018-07-10T04:20:54.170Z,55.50
2018-07-10T04:23:24.793Z,55.40
2018-07-10T04:25:54.746Z,55.40
2018-07-10T04:28:31.145Z,56.70
2018-07-10T04:31:05.499Z,55.80
2018-07-10T04:33:34.105Z,55.60
2018-07-10T04:36:02.759Z,55.70
2018-07-10T04:38:31.712Z,55.80
2018-07-10T04:41:06.692Z,55.50
2018-07-10T04:43:35.379Z,56.00
2018-07-10T04:46:04.008Z,56.00
2018-07-10T04:48:39.339Z,55.60
2018-07-10T04:51:17.567Z,55.20
2018-07-10T04:53:50.722Z,55.40
2018-07-10T04:56:19.971Z,55.80
2018-07-10T04:58:54.198Z,55.70
2018-07-10T05:01:33.478Z,56.50
2018-07-10T05:04:03.399Z,56.30
2018-07-10T05:06:34.807Z,56.50
2018-07-10T05:09:04.981Z,56.70
2018-07-10T05:14:02.863Z,56.70
2018-07-10T05:16:31.543Z,56.90
2018-07-10T05:19:00.598Z,57.10
2018-07-10T05:21:29.382Z,57.10
2018-07-10T05:23:58.339Z,56.50
2018-07-10T05:26:27.657Z,55.80
2018-07-10T05:28:56.421Z,55.80
2018-07-10T05:31:24.875Z,56.00
2018-07-10T05:33:53.496Z,56.50
2018-07-10T05:36:23.863Z,56.30
2018-07-10T05:39:01.772Z,56.30
2018-07-10T05:41:30.695Z,56.30
2018-07-10T05:43:59.446Z,56.50
2018-07-10T05:46:28.075Z,56.30
2018-07-10T05:49:04.472Z,56.30
2018-07-10T05:51:51.647Z,56.30
2018-07-10T05:54:21.504Z,56.40
2018-07-10T05:56:50.127Z,56.20
2018-07-10T06:01:47.016Z,56.60
2018-07-10T06:04:17.310Z,56.90
2018-07-10T06:06:46.742Z,56.70
2018-07-10T06:09:16.178Z,56.90
2018-07-10T06:11:45.053Z,57.00
2018-07-10T06:14:13.844Z,57.20
2018-07-10T06:16:43.285Z,57.60
2018-07-10T06:19:12.066Z,57.60
2018-07-10T06:21:44.622Z,57.50
2018-07-10T06:24:21.908Z,57.40
2018-07-10T06:26:57.867Z,57.50
2018-07-10T06:29:29.161Z,57.80
2018-07-10T06:31:58.949Z,57.80
2018-07-10T06:34:37.392Z,58.00
2018-07-10T06:37:08.755Z,58.20
2018-07-10T06:39:37.489Z,58.50
2018-07-10T06:42:15.384Z,58.90
2018-07-10T06:44:49.173Z,59.10
2018-07-10T06:47:27.591Z,59.40
2018-07-10T06:49:56.347Z,59.30
2018-07-10T06:52:25.122Z,59.70
2018-07-10T06:55:09.936Z,59.70
2018-07-10T06:57:56.054Z,60.00
2018-07-10T07:02:53.973Z,60.60
2018-07-10T07:05:22.579Z,60.80
2018-07-10T07:07:51.153Z,61.00
2018-07-10T07:10:19.655Z,61.20
2018-07-10T07:12:48.244Z,61.50
2018-07-10T07:15:19.640Z,61.40
2018-07-10T07:17:49.120Z,61.50
2018-07-10T07:20:18.431Z,61.70
2018-07-10T07:22:47.045Z,61.80
2018-07-10T07:25:15.664Z,62.20
2018-07-10T07:27:44.236Z,62.30
2018-07-10T07:30:12.795Z,62.90
2018-07-10T07:32:41.441Z,62.70
2018-07-10T07:35:09.984Z,63.00
2018-07-10T07:37:39.908Z,63.50
2018-07-10T07:40:09.679Z,63.40
2018-07-10T07:42:39.227Z,63.70
2018-07-10T07:45:08.437Z,64.20
2018-07-10T07:50:05.245Z,64.50
2018-07-10T07:52:33.845Z,64.50
2018-07-10T07:55:03.851Z,64.50
2018-07-10T07:57:33.542Z,64.80
2018-07-10T08:00:02.120Z,65.10
2018-07-10T08:02:30.847Z,65.00
2018-07-10T08:04:59.489Z,64.90
2018-07-10T08:07:28.219Z,64.80
2018-07-10T08:09:57.840Z,64.80
2018-07-10T08:12:29.400Z,65.20
2018-07-10T08:14:59.767Z,65.10
2018-07-10T08:17:28.372Z,65.20
2018-07-10T08:19:58.318Z,65.50
2018-07-10T08:22:27.744Z,65.00
2018-07-10T08:24:56.567Z,64.90
2018-07-10T08:27:26.154Z,64.70
2018-07-10T08:29:55.743Z,64.60
2018-07-10T08:32:26.410Z,64.60
2018-07-10T08:34:55.098Z,64.90
2018-07-10T08:37:23.678Z,65.10
2018-07-10T08:39:52.568Z,65.10
2018-07-10T08:42:21.254Z,64.80
2018-07-10T08:44:49.978Z,64.90
2018-07-10T08:47:18.725Z,64.60
2018-07-10T08:49:47.994Z,64.90
2018-07-10T08:52:16.799Z,64.80
2018-07-10T08:54:45.543Z,65.60
2018-07-10T08:57:14.273Z,65.70
2018-07-10T08:59:42.941Z,65.80
2018-07-10T09:02:11.560Z,66.00
2018-07-10T09:04:40.335Z,65.30
2018-07-10T09:07:08.927Z,65.80
2018-07-10T09:09:37.634Z,65.90
2018-07-10T09:12:06.264Z,63.70
2018-07-10T09:14:34.852Z,62.30
2018-07-10T09:17:03.492Z,61.10
2018-07-10T09:19:32.523Z,61.10
2018-07-10T09:22:09.317Z,61.00
2018-07-10T09:24:48.106Z,60.70
2018-07-10T09:27:19.239Z,61.60
2018-07-10T09:29:48.462Z,61.90
2018-07-10T09:32:21.364Z,61.90
2018-07-10T09:34:50.615Z,62.30
2018-07-10T09:37:24.691Z,62.40
2018-07-10T09:39:59.512Z,62.40
2018-07-10T09:42:29.583Z,62.40
2018-07-10T09:44:58.200Z,62.30
2018-07-10T09:47:26.811Z,62.30
2018-07-10T09:49:55.472Z,62.30
2018-07-10T09:52:24.072Z,62.40
2018-07-10T09:54:53.033Z,62.70
2018-07-10T09:57:21.590Z,62.50
2018-07-10T09:59:50.212Z,62.70
2018-07-10T10:02:24.555Z,62.60
2018-07-10T10:04:53.204Z,62.60
2018-07-10T10:07:21.751Z,62.50
2018-07-10T10:09:50.306Z,62.00
2018-07-10T10:12:18.890Z,62.20
2018-07-10T10:14:47.580Z,62.50
2018-07-10T10:17:16.986Z,62.10
2018-07-10T10:19:46.052Z,61.50
2018-07-10T10:22:14.636Z,61.40
2018-07-10T10:24:43.338Z,60.70
2018-07-10T10:27:11.949Z,60.70
2018-07-10T10:29:40.552Z,60.40
2018-07-10T10:32:09.202Z,60.10
2018-07-10T10:34:37.870Z,59.80
2018-07-10T10:37:06.502Z,59.70
2018-07-10T10:39:35.120Z,59.80
2018-07-10T10:42:04.099Z,59.60
2018-07-10T10:44:33.812Z,59.80
2018-07-10T10:47:02.536Z,60.00
2018-07-10T10:49:31.553Z,60.20
2018-07-10T10:52:00.657Z,60.10
2018-07-10T10:54:29.540Z,60.00
2018-07-10T10:56:58.344Z,59.40
2018-07-10T10:59:27.087Z,59.20
2018-07-10T11:01:56.665Z,59.40
2018-07-10T11:04:25.288Z,59.40
2018-07-10T11:06:54.476Z,59.50
2018-07-10T11:09:23.158Z,59.70
2018-07-10T11:11:51.760Z,59.60
2018-07-10T11:14:20.399Z,59.70
2018-07-10T11:16:49.064Z,59.90
2018-07-10T11:19:20.553Z,59.40
2018-07-10T11:22:06.050Z,59.30
2018-07-10T11:24:42.364Z,60.00
2018-07-10T11:27:13.965Z,61.00
2018-07-10T11:29:42.648Z,61.90
2018-07-10T11:32:11.292Z,61.30
2018-07-10T11:34:40.013Z,61.80
2018-07-10T11:37:08.760Z,61.20
2018-07-10T11:39:37.555Z,61.20
2018-07-10T11:42:06.378Z,61.20
2018-07-10T11:44:35.155Z,61.40
2018-07-10T11:47:03.963Z,60.90
2018-07-10T11:49:32.650Z,60.40
2018-07-10T11:52:01.271Z,60.80
2018-07-10T11:54:29.889Z,60.50
2018-07-10T11:56:58.975Z,59.90
2018-07-10T11:59:27.569Z,59.80
2018-07-10T12:01:56.259Z,59.70
2018-07-10T12:04:25.143Z,59.10
2018-07-10T12:06:53.887Z,59.00
2018-07-10T12:09:22.717Z,58.50
2018-07-10T12:11:51.821Z,57.90
2018-07-10T12:14:20.407Z,57.10
2018-07-10T12:16:49.076Z,56.80
2018-07-10T12:19:17.633Z,56.50
2018-07-10T12:21:46.625Z,56.00
2018-07-10T12:24:15.320Z,54.90
2018-07-10T12:26:44.200Z,54.60
2018-07-10T12:29:12.885Z,54.90
2018-07-10T12:31:41.673Z,55.70
2018-07-10T12:34:10.384Z,54.10
2018-07-10T12:36:39.006Z,54.10
2018-07-10T12:39:07.736Z,53.90
2018-07-10T12:41:36.371Z,54.10
2018-07-10T12:44:04.928Z,53.60
2018-07-10T12:46:33.583Z,54.00
2018-07-10T12:49:02.284Z,53.40
2018-07-10T12:51:30.880Z,53.50
2018-07-10T12:53:59.504Z,53.50
2018-07-10T12:56:28.177Z,53.00
2018-07-10T12:58:57.002Z,52.00
2018-07-10T13:01:25.699Z,52.40
2018-07-10T13:03:54.416Z,52.20
2018-07-10T13:08:51.491Z,52.30
2018-07-10T13:11:20.190Z,51.20
2018-07-10T13:13:49.078Z,49.80
2018-07-10T13:16:17.939Z,49.80
2018-07-10T13:18:46.732Z,50.10
2018-07-10T13:21:15.408Z,49.70
2018-07-10T13:23:44.086Z,49.00
2018-07-10T13:26:12.698Z,48.40
2018-07-10T13:28:41.483Z,48.00
2018-07-10T13:31:10.240Z,47.70
2018-07-10T13:33:39.090Z,46.70
2018-07-10T13:36:07.874Z,46.70
2018-07-10T13:38:36.738Z,47.30
2018-07-10T13:41:05.500Z,47.40
2018-07-10T13:43:34.180Z,47.00
2018-07-10T13:46:02.978Z,46.60
2018-07-10T13:48:31.627Z,47.40
2018-07-10T13:51:00.250Z,46.40
2018-07-10T13:53:28.846Z,45.00
2018-07-10T13:55:57.487Z,44.60
2018-07-10T13:58:33.363Z,44.10
2018-07-10T14:01:03.904Z,44.70
2018-07-10T14:03:33.048Z,44.10
2018-07-10T14:06:02.204Z,44.60
2018-07-10T14:08:31.462Z,44.40
2018-07-10T14:11:00.598Z,44.30
2018-07-10T14:13:29.259Z,43.40
2018-07-10T14:15:58.077Z,43.40
2018-07-10T14:18:27.200Z,43.10
2018-07-10T14:21:04.115Z,43.10
2018-07-10T14:23:32.960Z,43.00
2018-07-10T14:26:01.761Z,42.90
2018-07-10T14:28:30.355Z,43.10
2018-07-10T14:30:59.087Z,42.30
2018-07-10T14:33:27.774Z,43.10
2018-07-10T14:35:56.511Z,42.30
2018-07-10T14:38:27.498Z,42.50
2018-07-10T14:40:57.786Z,43.50
2018-07-10T14:43:29.307Z,44.20
2018-07-10T14:46:19.880Z,43.70
2018-07-10T14:48:51.761Z,42.70
2018-07-10T14:51:52.747Z,43.30
2018-07-10T14:54:21.628Z,42.40
2018-07-10T14:56:50.342Z,42.70
2018-07-10T14:59:18.956Z,41.80
2018-07-10T15:01:48.049Z,41.70
2018-07-10T15:04:16.992Z,41.30
2018-07-10T15:09:13.952Z,41.20
2018-07-10T15:11:49.066Z,40.40
2018-07-10T15:14:18.155Z,40.70
2018-07-10T15:16:52.186Z,39.80
2018-07-10T15:19:20.792Z,39.90
2018-07-10T15:21:49.425Z,39.80
2018-07-10T15:24:18.144Z,38.90
2018-07-10T15:26:46.950Z,39.10
2018-07-10T15:29:20.894Z,39.60
2018-07-10T15:31:49.545Z,39.40
2018-07-10T15:34:18.442Z,38.80
2018-07-10T15:36:47.200Z,39.20
2018-07-10T15:39:15.885Z,38.40
2018-07-10T15:41:44.716Z,38.40
2018-07-10T15:44:13.567Z,38.60
2018-07-10T15:46:42.402Z,38.40
2018-07-10T15:49:11.240Z,39.10
2018-07-10T15:51:40.026Z,38.90
2018-07-10T15:54:08.734Z,39.10
2018-07-10T15:56:37.398Z,39.60
2018-07-10T15:59:06.384Z,38.50
2018-07-10T16:01:35.522Z,39.40
2018-07-10T16:04:04.501Z,38.50
2018-07-10T16:06:35.408Z,38.60
2018-07-10T16:09:20.776Z,38.00
2018-07-10T16:11:55.104Z,38.20
2018-07-10T16:14:23.908Z,38.30
2018-07-10T16:16:52.555Z,37.40
2018-07-10T16:19:26.056Z,38.10
2018-07-10T16:22:00.778Z,37.80
2018-07-10T16:24:35.039Z,37.40
2018-07-10T16:27:03.757Z,37.60
2018-07-10T16:29:32.534Z,37.50
2018-07-10T16:32:04.344Z,38.20
2018-07-10T16:34:33.329Z,37.40
2018-07-10T16:37:02.959Z,37.70
2018-07-10T16:39:31.754Z,37.90
2018-07-10T16:42:06.229Z,38.10
2018-07-10T16:44:36.742Z,38.40
2018-07-10T16:47:09.524Z,38.00
2018-07-10T16:49:42.707Z,37.90
2018-07-10T16:52:31.433Z,37.70
2018-07-10T16:55:00.160Z,38.20
2018-07-10T16:57:29.132Z,38.10
2018-07-10T16:59:58.341Z,38.20
2018-07-10T17:02:27.444Z,38.10
2018-07-10T17:04:55.241Z,37.60
2018-07-10T17:07:24.131Z,37.60
2018-07-10T17:09:52.762Z,37.10
2018-07-10T17:12:21.628Z,38.20
2018-07-10T17:14:55.257Z,38.30
2018-07-10T17:17:24.673Z,38.60
2018-07-10T17:19:54.376Z,38.70
2018-07-10T17:22:23.774Z,38.30
2018-07-10T17:24:51.890Z,38.00
2018-07-10T17:27:23.051Z,38.10
2018-07-10T17:29:51.220Z,38.50
2018-07-10T17:32:19.057Z,38.40
2018-07-10T17:34:47.060Z,38.90
2018-07-10T17:37:16.031Z,39.10
2018-07-10T17:39:44.863Z,38.80
2018-07-10T17:42:13.638Z,38.50
2018-07-10T17:44:42.450Z,38.50
2018-07-10T17:47:11.316Z,38.70
2018-07-10T17:49:39.144Z,38.30
2018-07-10T17:52:08.011Z,38.50
2018-07-10T17:54:36.921Z,38.50
2018-07-10T17:57:05.947Z,38.50
2018-07-10T17:59:34.778Z,38.00
2018-07-10T18:02:03.668Z,38.20
2018-07-10T18:04:32.603Z,38.00
2018-07-10T18:07:00.748Z,38.40
2018-07-10T18:09:28.635Z,39.50
2018-07-10T18:14:25.412Z,39.60
2018-07-10T18:16:54.196Z,39.30
2018-07-10T18:19:24.237Z,39.20
2018-07-10T18:21:52.943Z,39.00
2018-07-10T18:24:21.952Z,38.90
2018-07-10T18:26:50.698Z,39.20
2018-07-10T18:29:19.664Z,38.70
2018-07-10T18:31:48.291Z,38.90
2018-07-10T18:34:17.082Z,39.20
2018-07-10T18:36:46.217Z,38.80
2018-07-10T18:41:44.163Z,38.60
2018-07-10T18:44:12.883Z,38.60
2018-07-10T18:46:41.804Z,38.80
2018-07-10T18:49:10.461Z,39.10
2018-07-10T18:51:39.108Z,39.20
2018-07-10T18:54:08.699Z,39.50
2018-07-10T18:56:36.968Z,39.70
2018-07-10T18:59:07.764Z,39.90
2018-07-10T19:01:47.105Z,40.10
2018-07-10T19:04:16.328Z,40.60
2018-07-10T19:06:45.190Z,40.80
2018-07-10T19:09:24.877Z,41.00
2018-07-10T19:11:54.298Z,41.60
2018-07-10T19:14:23.607Z,41.90
2018-07-10T19:16:52.482Z,41.30
2018-07-10T19:19:21.700Z,41.40
2018-07-10T19:22:11.483Z,41.50
2018-07-10T19:24:42.733Z,42.00
2018-07-10T19:27:30.511Z,41.90
2018-07-10T19:30:07.292Z,42.30
2018-07-10T19:32:36.588Z,42.60
2018-07-10T19:35:05.757Z,42.60
2018-07-10T19:37:37.670Z,42.70
2018-07-10T19:40:06.937Z,43.20
2018-07-10T19:42:37.531Z,43.30
2018-07-10T19:45:06.436Z,43.60
2018-07-10T19:47:35.125Z,44.00
2018-07-10T19:50:17.554Z,44.20
2018-07-10T19:52:55.044Z,44.30
2018-07-10T19:55:26.867Z,45.30
2018-07-10T19:58:05.446Z,45.10
2018-07-10T20:00:40.897Z,45.40
2018-07-10T20:03:10.940Z,46.50
2018-07-10T20:05:41.197Z,46.60
2018-07-10T20:08:15.465Z,47.00
2018-07-10T20:10:49.718Z,46.90
2018-07-10T20:13:40.246Z,47.70
2018-07-10T20:16:29.198Z,47.70
2018-07-10T20:21:09.958Z,47.70
2018-07-10T20:23:59.138Z,47.60
2018-07-10T20:26:36.701Z,46.80
2018-07-10T20:29:12.228Z,46.90
2018-07-10T20:31:47.565Z,45.80
2018-07-10T20:34:27.868Z,45.60
2018-07-10T20:36:56.582Z,46.20
2018-07-10T20:39:36.482Z,46.00
2018-07-10T20:42:05.962Z,46.40
2018-07-10T20:44:44.931Z,46.20
2018-07-10T20:47:13.829Z,46.80
2018-07-10T20:49:52.034Z,47.20
2018-07-10T20:52:53.372Z,47.50
2018-07-10T20:55:23.744Z,47.70
2018-07-10T20:58:04.548Z,47.90
2018-07-10T21:00:42.300Z,47.90
2018-07-10T21:03:22.316Z,47.90
2018-07-10T21:05:51.817Z,47.80
2018-07-10T21:08:38.530Z,47.80
2018-07-10T21:11:14.797Z,47.70
2018-07-10T21:13:54.485Z,47.50
2018-07-10T21:17:03.035Z,47.40
2018-07-10T21:21:14.220Z,47.30
2018-07-10T21:24:04.913Z,47.50
2018-07-10T21:26:39.059Z,47.60
2018-07-10T21:29:21.333Z,47.30
2018-07-10T21:32:01.593Z,47.40
2018-07-10T21:34:38.847Z,47.40
2018-07-10T21:37:47.861Z,47.40
2018-07-10T21:40:41.537Z,47.70
2018-07-10T21:43:21.608Z,47.60
2018-07-10T21:46:58.249Z,47.80
2018-07-10T21:49:36.761Z,48.70
2018-07-10T21:52:05.488Z,47.90
2018-07-10T21:54:34.260Z,48.00
2018-07-10T21:57:03.177Z,48.80
2018-07-10T21:59:32.877Z,48.20
2018-07-10T22:02:05.138Z,48.20
2018-07-10T22:04:37.516Z,48.10
2018-07-10T22:07:12.358Z,48.30
2018-07-10T22:09:41.794Z,48.40
2018-07-10T22:12:13.394Z,48.40
2018-07-10T22:14:42.319Z,48.60
2018-07-10T22:17:14.193Z,48.80
2018-07-10T22:19:44.974Z,48.60
2018-07-10T22:22:14.447Z,48.70
2018-07-10T22:24:43.352Z,48.70
2018-07-10T22:27:12.057Z,48.70
2018-07-10T22:29:46.048Z,48.90
2018-07-10T22:32:19.939Z,48.90
2018-07-10T22:34:48.572Z,49.70
2018-07-10T22:37:17.700Z,49.60
2018-07-10T22:39:46.301Z,49.70
2018-07-10T22:42:14.929Z,49.50
2018-07-10T22:44:48.982Z,49.40
2018-07-10T22:47:19.480Z,49.40
2018-07-10T22:49:49.604Z,48.90
2018-07-10T22:52:18.393Z,48.90
2018-07-10T22:54:47.893Z,48.80
2018-07-10T22:57:16.548Z,48.60
2018-07-10T22:59:45.186Z,48.70
2018-07-10T23:02:13.775Z,49.00
2018-07-10T23:04:42.415Z,48.70
2018-07-10T23:07:11.194Z,48.90
2018-07-10T23:09:39.781Z,48.60
2018-07-10T23:12:08.409Z,48.80
2018-07-10T23:14:37.174Z,48.60
2018-07-10T23:17:05.830Z,48.60
2018-07-10T23:19:34.555Z,48.90
2018-07-10T23:22:03.209Z,48.80
2018-07-10T23:24:32.437Z,48.70
2018-07-10T23:27:01.266Z,49.30
2018-07-10T23:29:32.852Z,48.90
2018-07-10T23:32:02.049Z,48.80
2018-07-10T23:34:31.416Z,49.30
2018-07-10T23:37:01.463Z,49.30
2018-07-10T23:39:39.129Z,49.50
2018-07-10T23:42:11.432Z,49.40
2018-07-10T23:44:42.603Z,49.50
2018-07-10T23:47:16.866Z,49.70
2018-07-10T23:49:45.448Z,49.70
2018-07-10T23:52:27.092Z,49.90
2018-07-10T23:54:55.694Z,49.90
2018-07-10T23:57:24.316Z,50.10
2018-07-10T23:59:52.933Z,50.00
